createdAt,value
2022-11-14T00:01:07.988Z,8.38
2022-11-14T00:03:54.461Z,8.73
2022-11-14T00:06:40.672Z,8.18
2022-11-14T00:09:28.566Z,7.70
2022-11-14T00:12:15.175Z,8.25
2022-11-14T00:15:01.186Z,8.98
2022-11-14T00:17:47.853Z,8.10
2022-11-14T00:20:34.434Z,8.10
2022-11-14T00:23:22.015Z,8.07
2022-11-14T00:26:08.491Z,8.00
2022-11-14T00:28:55.405Z,7.35
2022-11-14T00:31:42.373Z,8.02
2022-11-14T00:34:28.665Z,8.35
2022-11-14T00:37:15.270Z,7.60
2022-11-14T00:40:01.531Z,9.00
2022-11-14T00:42:47.925Z,8.10
2022-11-14T00:45:34.527Z,8.95
2022-11-14T00:48:21.151Z,7.43
2022-11-14T00:51:07.904Z,7.75
2022-11-14T00:53:54.159Z,7.70
2022-11-14T00:56:40.359Z,8.15
2022-11-14T00:59:26.579Z,7.82
2022-11-14T01:02:12.989Z,7.40
2022-11-14T01:05:00.783Z,7.55
2022-11-14T01:07:47.297Z,6.80
2022-11-14T01:10:34.997Z,7.65
2022-11-14T01:13:21.590Z,7.65
2022-11-14T01:16:08.767Z,7.22
2022-11-14T01:18:55.047Z,7.35
2022-11-14T01:21:41.475Z,7.10
2022-11-14T01:24:28.652Z,8.32
2022-11-14T01:27:14.976Z,7.75
2022-11-14T01:30:01.344Z,8.00
2022-11-14T01:32:47.586Z,7.88
2022-11-14T01:35:35.514Z,8.35
2022-11-14T01:38:22.032Z,7.75
2022-11-14T01:41:08.537Z,7.90
2022-11-14T01:43:54.924Z,7.15
2022-11-14T01:46:43.515Z,7.70
2022-11-14T01:49:38.323Z,8.70
2022-11-14T01:52:40.617Z,8.48
2022-11-14T01:55:27.537Z,8.30
2022-11-14T01:58:16.096Z,8.73
2022-11-14T02:01:03.674Z,7.90
2022-11-14T02:03:53.534Z,7.90
2022-11-14T02:06:41.005Z,8.18
2022-11-14T02:09:31.136Z,8.55
2022-11-14T02:12:19.842Z,8.52
2022-11-14T02:15:07.059Z,8.57
2022-11-14T02:17:53.825Z,7.68
2022-11-14T02:20:43.482Z,8.18
2022-11-14T02:23:31.905Z,8.10
2022-11-14T02:26:22.340Z,8.75
2022-11-14T02:29:10.822Z,8.98
2022-11-14T02:31:57.387Z,7.75
2022-11-14T02:34:43.687Z,8.02
2022-11-14T02:37:31.413Z,7.55
2022-11-14T02:40:17.937Z,8.45
2022-11-14T02:43:04.563Z,7.35
2022-11-14T02:45:50.902Z,8.23
2022-11-14T02:48:37.199Z,8.68
2022-11-14T02:51:26.680Z,7.75
2022-11-14T02:54:13.169Z,7.30
2022-11-14T02:56:59.488Z,7.38
2022-11-14T02:59:45.667Z,7.07
2022-11-14T03:02:32.330Z,7.40
2022-11-14T03:05:18.628Z,7.57
2022-11-14T03:08:04.894Z,7.25
2022-11-14T03:10:51.231Z,8.48
2022-11-14T03:13:37.864Z,6.40
2022-11-14T03:16:24.264Z,6.63
2022-11-14T03:19:10.540Z,6.93
2022-11-14T03:21:56.823Z,7.25
2022-11-14T03:24:43.337Z,6.50
2022-11-14T03:27:29.607Z,6.53
2022-11-14T03:30:15.878Z,7.05
2022-11-14T03:33:02.282Z,6.57
2022-11-14T03:35:53.063Z,6.22
2022-11-14T03:38:40.666Z,6.85
2022-11-14T03:41:27.158Z,7.85
2022-11-14T03:44:13.701Z,6.88
2022-11-14T03:47:00.278Z,6.22
2022-11-14T03:49:46.456Z,7.13
2022-11-14T03:52:32.623Z,7.00
2022-11-14T03:55:18.868Z,6.10
2022-11-14T03:58:05.236Z,6.95
2022-11-14T04:00:51.731Z,6.88
2022-11-14T04:03:37.929Z,6.25
2022-11-14T04:06:24.310Z,6.95
2022-11-14T04:09:10.916Z,6.25
2022-11-14T04:11:57.152Z,5.95
2022-11-14T04:14:43.622Z,5.82
2022-11-14T04:17:37.060Z,6.00
2022-11-14T04:20:26.296Z,6.70
2022-11-14T04:23:12.635Z,6.35
2022-11-14T04:25:59.429Z,6.30
2022-11-14T04:28:45.857Z,6.82
2022-11-14T04:31:32.138Z,6.53
2022-11-14T04:34:18.503Z,6.15
2022-11-14T04:37:04.888Z,6.63
2022-11-14T04:39:51.303Z,6.05
2022-11-14T04:42:37.831Z,6.20
2022-11-14T04:45:24.193Z,6.93
2022-11-14T04:48:10.858Z,6.30
2022-11-14T04:50:57.498Z,5.70
2022-11-14T04:53:43.951Z,6.25
2022-11-14T04:56:30.299Z,6.40
2022-11-14T04:59:20.707Z,5.63
2022-11-14T05:02:07.742Z,5.68
2022-11-14T05:04:56.439Z,5.68
2022-11-14T05:07:42.867Z,6.18
2022-11-14T05:10:29.452Z,5.50
2022-11-14T05:13:16.407Z,5.30
2022-11-14T05:16:02.916Z,6.05
2022-11-14T05:18:49.222Z,6.35
2022-11-14T05:21:35.615Z,6.18
2022-11-14T05:24:22.014Z,6.30
2022-11-14T05:27:08.521Z,6.40
2022-11-14T05:29:55.657Z,6.15
2022-11-14T05:32:42.252Z,6.20
2022-11-14T05:35:28.589Z,6.50
2022-11-14T05:38:15.153Z,6.15
2022-11-14T05:41:06.811Z,7.20
2022-11-14T05:43:53.129Z,5.90
2022-11-14T05:46:39.347Z,7.30
2022-11-14T05:49:25.532Z,6.85
2022-11-14T05:52:12.129Z,7.22
2022-11-14T05:54:58.718Z,7.13
2022-11-14T05:57:45.155Z,7.18
2022-11-14T06:00:38.024Z,8.40
2022-11-14T06:03:31.459Z,7.15
2022-11-14T06:06:20.772Z,7.03
2022-11-14T06:09:07.299Z,7.13
2022-11-14T06:11:53.767Z,8.10
2022-11-14T06:14:40.040Z,6.40
2022-11-14T06:17:26.074Z,6.45
2022-11-14T06:20:16.220Z,7.78
2022-11-14T06:23:02.812Z,7.15
2022-11-14T06:25:49.217Z,7.80
2022-11-14T06:28:35.609Z,7.65
2022-11-14T06:31:23.417Z,7.55
2022-11-14T06:34:11.661Z,7.68
2022-11-14T06:36:57.757Z,7.25
2022-11-14T06:39:44.476Z,8.02
2022-11-14T06:42:30.797Z,7.78
2022-11-14T06:45:17.053Z,8.32
2022-11-14T06:48:03.542Z,8.15
2022-11-14T06:50:57.534Z,8.30
2022-11-14T06:53:45.258Z,7.18
2022-11-14T06:56:31.424Z,7.95
2022-11-14T06:59:34.078Z,8.23
2022-11-14T07:02:22.352Z,7.78
2022-11-14T07:05:08.492Z,7.63
2022-11-14T07:07:54.647Z,7.63
2022-11-14T07:10:41.021Z,7.65
2022-11-14T07:13:27.227Z,8.65
2022-11-14T07:16:13.848Z,7.43
2022-11-14T07:19:01.249Z,8.25
2022-11-14T07:21:48.922Z,8.25
2022-11-14T07:24:36.083Z,7.85
2022-11-14T07:27:22.593Z,8.23
2022-11-14T07:30:33.361Z,7.40
2022-11-14T07:33:22.309Z,7.47
2022-11-14T07:36:09.476Z,8.35
2022-11-14T07:38:56.012Z,8.70
2022-11-14T07:41:42.159Z,8.45
2022-11-14T07:44:28.635Z,7.95
2022-11-14T07:47:15.270Z,9.27
2022-11-14T07:50:04.509Z,7.47
2022-11-14T07:52:52.467Z,9.05
2022-11-14T07:55:39.618Z,10.63
2022-11-14T07:58:26.210Z,9.63
2022-11-14T08:01:14.722Z,10.48
2022-11-14T08:04:01.082Z,10.63
2022-11-14T08:06:47.685Z,10.07
2022-11-14T08:09:33.866Z,9.85
2022-11-14T08:12:20.314Z,9.55
2022-11-14T08:15:10.524Z,9.27
2022-11-14T08:18:01.280Z,8.85
2022-11-14T08:20:48.104Z,9.18
2022-11-14T08:23:34.596Z,10.15
2022-11-14T08:26:20.858Z,8.98
2022-11-14T08:29:07.374Z,8.18
2022-11-14T08:31:59.600Z,9.30
2022-11-14T08:34:46.371Z,8.82
2022-11-14T08:37:32.622Z,8.55
2022-11-14T08:40:18.910Z,8.60
2022-11-14T08:43:05.932Z,8.98
2022-11-14T08:45:52.555Z,9.13
2022-11-14T08:48:38.880Z,7.28
2022-11-14T08:51:25.355Z,7.65
2022-11-14T08:54:11.764Z,7.40
2022-11-14T08:56:58.455Z,7.05
2022-11-14T08:59:44.844Z,6.55
2022-11-14T09:02:32.227Z,7.15
2022-11-14T09:05:18.577Z,6.70
2022-11-14T09:08:04.936Z,7.20
2022-11-14T09:10:51.202Z,6.43
2022-11-14T09:13:37.480Z,5.88
2022-11-14T09:16:23.695Z,6.40
2022-11-14T09:19:09.979Z,5.70
2022-11-14T09:21:56.101Z,6.60
2022-11-14T09:24:43.510Z,6.60
2022-11-14T09:27:30.142Z,5.82
2022-11-14T09:30:16.860Z,7.07
2022-11-14T09:33:10.009Z,6.35
2022-11-14T09:36:02.741Z,5.90
2022-11-14T09:38:51.343Z,5.28
2022-11-14T09:41:46.547Z,4.90
2022-11-14T09:44:56.895Z,5.15
2022-11-14T09:47:46.233Z,5.28
2022-11-14T09:50:43.217Z,4.90
2022-11-14T09:53:50.575Z,4.50
2022-11-14T09:56:37.237Z,5.68
2022-11-14T09:59:24.444Z,4.38
2022-11-14T10:02:32.347Z,4.70
2022-11-14T10:05:36.561Z,5.10
2022-11-14T10:08:30.685Z,5.70
2022-11-14T10:11:22.679Z,5.43
2022-11-14T10:14:37.139Z,4.65
2022-11-14T10:17:42.252Z,5.57
2022-11-14T10:20:28.504Z,6.45
2022-11-14T10:23:40.708Z,6.28
2022-11-14T10:26:31.699Z,5.72
2022-11-14T10:29:39.266Z,5.30
2022-11-14T10:32:34.926Z,4.95
2022-11-14T10:35:34.970Z,5.40
2022-11-14T10:38:37.130Z,4.93
2022-11-14T10:41:55.053Z,4.47
2022-11-14T10:44:48.546Z,4.47
2022-11-14T10:47:41.574Z,3.92
2022-11-14T10:50:38.334Z,4.35
2022-11-14T10:53:59.645Z,4.47
2022-11-14T10:56:50.167Z,4.55
2022-11-14T10:59:36.609Z,5.05
2022-11-14T11:02:22.856Z,4.03
2022-11-14T11:05:16.662Z,4.63
2022-11-14T11:08:42.823Z,4.00
2022-11-14T11:11:31.024Z,3.67
2022-11-14T11:14:19.120Z,4.32
2022-11-14T11:17:12.147Z,3.70
2022-11-14T11:20:28.520Z,3.42
2022-11-14T11:23:18.673Z,2.90
2022-11-14T11:26:18.084Z,3.67
2022-11-14T11:29:10.496Z,3.30
2022-11-14T11:32:00.119Z,3.13
2022-11-14T11:34:47.187Z,3.17
2022-11-14T11:37:45.065Z,2.95
2022-11-14T11:40:31.615Z,2.85
2022-11-14T11:44:01.793Z,3.25
2022-11-14T11:47:01.241Z,3.05
2022-11-14T11:49:53.942Z,3.00
2022-11-14T11:52:59.544Z,2.92
2022-11-14T11:55:51.275Z,2.45
2022-11-14T11:58:45.169Z,3.53
2022-11-14T12:01:31.481Z,3.30
2022-11-14T12:04:18.453Z,3.05
2022-11-14T12:07:22.980Z,3.25
2022-11-14T12:10:28.055Z,3.33
2022-11-14T12:13:40.429Z,3.38
2022-11-14T12:16:37.158Z,3.33
2022-11-14T12:19:41.495Z,3.13
2022-11-14T12:23:08.942Z,3.00
2022-11-14T12:26:24.975Z,3.28
2022-11-14T12:29:32.450Z,3.38
2022-11-14T12:32:52.074Z,3.08
2022-11-14T12:35:52.083Z,3.22
2022-11-14T12:38:57.471Z,4.07
2022-11-14T12:41:43.905Z,2.85
2022-11-14T12:44:30.292Z,2.83
2022-11-14T12:47:56.460Z,3.42
2022-11-14T12:50:43.681Z,3.10
2022-11-14T12:53:39.489Z,3.47
2022-11-14T12:56:31.620Z,3.05
2022-11-14T12:59:20.691Z,3.00
2022-11-14T13:02:25.077Z,3.13
2022-11-14T13:05:17.434Z,3.30
2022-11-14T13:08:22.351Z,3.10
2022-11-14T13:11:54.950Z,2.95
2022-11-14T13:15:11.870Z,3.60
2022-11-14T13:18:48.169Z,3.30
2022-11-14T13:21:47.160Z,3.53
2022-11-14T13:24:57.748Z,2.88
2022-11-14T13:31:15.152Z,2.10
2022-11-14T13:34:22.829Z,2.88
2022-11-14T13:37:44.153Z,3.03
2022-11-14T13:40:49.144Z,3.38
2022-11-14T13:43:56.583Z,2.72
2022-11-14T13:47:01.470Z,3.20
2022-11-14T13:49:53.860Z,3.33
2022-11-14T13:52:48.574Z,2.95
2022-11-14T13:59:08.387Z,3.78
2022-11-14T14:02:20.683Z,3.25
2022-11-14T14:05:41.060Z,2.83
2022-11-14T14:08:42.440Z,2.78
2022-11-14T14:11:53.488Z,3.55
2022-11-14T14:15:04.835Z,2.55
2022-11-14T14:18:04.970Z,2.67
2022-11-14T14:21:06.027Z,3.42
2022-11-14T14:23:58.451Z,3.33
2022-11-14T14:27:12.431Z,3.22
2022-11-14T14:30:19.282Z,3.28
2022-11-14T14:33:15.780Z,3.03
2022-11-14T14:36:02.784Z,3.40
2022-11-14T14:38:52.330Z,2.42
2022-11-14T14:41:38.906Z,2.28
2022-11-14T14:44:34.694Z,2.45
2022-11-14T14:47:35.020Z,2.22
2022-11-14T14:50:22.955Z,2.20
2022-11-14T14:53:23.055Z,2.20
2022-11-14T14:56:24.887Z,2.22
2022-11-14T14:59:25.387Z,1.73
2022-11-14T15:02:18.080Z,2.40
2022-11-14T15:05:06.030Z,1.88
2022-11-14T15:07:57.445Z,2.20
2022-11-14T15:10:44.820Z,1.80
2022-11-14T15:13:32.301Z,2.28
2022-11-14T15:16:20.168Z,1.80
2022-11-14T15:19:07.310Z,2.05
2022-11-14T15:22:26.933Z,1.88
2022-11-14T15:25:13.785Z,2.30
2022-11-14T15:28:00.990Z,3.65
2022-11-14T15:31:02.222Z,3.90
2022-11-14T15:34:04.674Z,5.15
2022-11-14T15:37:22.160Z,6.20
2022-11-14T15:40:19.728Z,7.63
2022-11-14T15:43:44.099Z,8.35
2022-11-14T15:46:47.296Z,8.25
2022-11-14T15:49:33.849Z,8.30
2022-11-14T15:52:31.647Z,10.68
2022-11-14T15:55:21.205Z,8.07
2022-11-14T15:58:28.660Z,9.68
2022-11-14T16:01:22.963Z,9.68
2022-11-14T16:04:19.273Z,10.60
2022-11-14T16:07:06.427Z,10.32
2022-11-14T16:09:53.006Z,9.98
2022-11-14T16:12:40.727Z,11.95
2022-11-14T16:15:27.013Z,10.68
2022-11-14T16:18:13.672Z,11.40
2022-11-14T16:21:01.156Z,11.30
2022-11-14T16:23:50.125Z,11.52
2022-11-14T16:26:36.704Z,10.73
2022-11-14T16:29:23.550Z,12.15
2022-11-14T16:32:11.793Z,11.55
2022-11-14T16:34:58.322Z,12.68
2022-11-14T16:37:45.434Z,11.30
2022-11-14T16:40:32.015Z,12.20
2022-11-14T16:43:19.064Z,13.20
2022-11-14T16:46:06.649Z,12.23
2022-11-14T16:48:55.368Z,12.18
2022-11-14T16:51:48.179Z,13.18
2022-11-14T16:54:36.196Z,12.43
2022-11-14T16:57:23.522Z,14.10
2022-11-14T17:00:12.530Z,12.88
2022-11-14T17:02:59.196Z,13.02
2022-11-14T17:05:47.841Z,13.80
2022-11-14T17:08:34.036Z,13.70
2022-11-14T17:11:20.554Z,13.88
2022-11-14T17:14:07.430Z,15.07
2022-11-14T17:16:53.998Z,14.95
2022-11-14T17:19:46.023Z,17.05
2022-11-14T17:22:32.645Z,15.88
2022-11-14T17:25:19.252Z,15.40
2022-11-14T17:28:05.793Z,15.32
2022-11-14T17:30:52.080Z,14.93
2022-11-14T17:33:38.373Z,16.48
2022-11-14T17:36:27.487Z,14.63
2022-11-14T17:39:14.316Z,14.48
2022-11-14T17:42:00.804Z,14.95
2022-11-14T17:44:47.076Z,14.18
2022-11-14T17:47:33.288Z,14.35
2022-11-14T17:50:19.472Z,14.88
2022-11-14T17:53:06.170Z,15.73
2022-11-14T17:55:57.412Z,18.00
2022-11-14T17:58:44.853Z,16.67
2022-11-14T18:01:31.794Z,15.90
2022-11-14T18:04:18.135Z,17.30
2022-11-14T18:07:04.362Z,15.60
2022-11-14T18:09:50.654Z,16.70
2022-11-14T18:12:37.037Z,17.02
2022-11-14T18:15:27.754Z,16.73
2022-11-14T18:18:15.066Z,17.08
2022-11-14T18:21:08.142Z,17.88
2022-11-14T18:23:59.416Z,19.15
2022-11-14T18:26:46.036Z,20.42
2022-11-14T18:29:32.566Z,20.23
2022-11-14T18:32:18.864Z,19.30
2022-11-14T18:35:05.847Z,18.00
2022-11-14T18:37:52.263Z,20.55
2022-11-14T18:40:38.568Z,19.33
2022-11-14T18:43:25.107Z,20.02
2022-11-14T18:46:15.568Z,18.08
2022-11-14T18:49:02.204Z,18.73
2022-11-14T18:51:48.407Z,17.92
2022-11-14T18:54:34.806Z,18.67
2022-11-14T18:57:21.090Z,18.73
2022-11-14T19:00:08.046Z,20.45
2022-11-14T19:02:54.544Z,18.52
2022-11-14T19:05:40.814Z,19.42
2022-11-14T19:08:26.945Z,17.38
2022-11-14T19:11:35.681Z,19.30
2022-11-14T19:14:22.477Z,18.27
2022-11-14T19:17:09.198Z,17.83
2022-11-14T19:19:55.495Z,18.52
2022-11-14T19:22:41.986Z,19.15
2022-11-14T19:25:28.121Z,19.65
2022-11-14T19:28:14.416Z,24.13
2022-11-14T19:31:02.239Z,21.95
2022-11-14T19:33:49.434Z,22.08
2022-11-14T19:36:58.764Z,21.58
2022-11-14T19:39:42.927Z,20.05
2022-11-14T19:42:29.225Z,21.10
2022-11-14T19:45:15.512Z,21.30
2022-11-14T19:48:02.528Z,20.33
2022-11-14T19:50:48.814Z,18.90
2022-11-14T19:53:36.824Z,18.90
2022-11-14T19:56:23.999Z,19.30
2022-11-14T19:59:14.446Z,16.65
2022-11-14T20:02:02.699Z,15.57
2022-11-14T20:04:49.711Z,15.70
2022-11-14T20:07:36.215Z,17.83
2022-11-14T20:10:22.695Z,17.10
2022-11-14T20:13:08.995Z,16.02
2022-11-14T20:15:55.352Z,18.55
2022-11-14T20:18:45.813Z,15.98
2022-11-14T20:21:34.125Z,17.63
2022-11-14T20:24:22.710Z,18.17
2022-11-14T20:27:09.172Z,18.00
2022-11-14T20:29:55.863Z,17.98
2022-11-14T20:32:42.374Z,18.02
2022-11-14T20:35:28.524Z,17.05
2022-11-14T20:38:14.960Z,17.83
2022-11-14T20:41:01.540Z,18.38
2022-11-14T20:43:48.646Z,16.75
2022-11-14T20:46:35.027Z,17.10
2022-11-14T20:49:22.508Z,19.10
2022-11-14T20:52:09.979Z,18.17
2022-11-14T20:54:56.300Z,18.73
2022-11-14T20:57:43.103Z,17.92
2022-11-14T21:00:29.564Z,17.35
2022-11-14T21:03:17.099Z,18.58
2022-11-14T21:06:04.377Z,17.65
2022-11-14T21:08:50.798Z,17.50
2022-11-14T21:11:37.771Z,17.45
2022-11-14T21:14:24.276Z,18.88
2022-11-14T21:17:10.987Z,16.98
2022-11-14T21:19:58.148Z,18.48
2022-11-14T21:22:44.633Z,17.10
2022-11-14T21:25:30.899Z,16.35
2022-11-14T21:28:17.139Z,17.05
2022-11-14T21:31:39.241Z,19.35
2022-11-14T21:34:26.011Z,18.25
2022-11-14T21:37:12.294Z,20.92
2022-11-14T21:39:58.839Z,19.70
2022-11-14T21:42:45.384Z,21.45
2022-11-14T21:45:31.709Z,24.08
2022-11-14T21:48:18.068Z,22.98
2022-11-14T21:51:15.622Z,21.30
2022-11-14T21:54:03.044Z,20.10
2022-11-14T21:56:49.798Z,20.00
2022-11-14T21:59:36.060Z,21.45
2022-11-14T22:02:40.739Z,20.65
2022-11-14T22:05:27.355Z,18.08
2022-11-14T22:08:16.052Z,19.00
2022-11-14T22:11:02.588Z,19.48
2022-11-14T22:13:48.998Z,19.63
2022-11-14T22:16:35.859Z,20.90
2022-11-14T22:19:22.540Z,19.42
2022-11-14T22:22:08.845Z,18.23
2022-11-14T22:24:55.589Z,18.15
2022-11-14T22:27:41.909Z,16.42
2022-11-14T22:30:28.497Z,15.43
2022-11-14T22:33:14.849Z,14.30
2022-11-14T22:36:02.655Z,15.05
2022-11-14T22:38:49.870Z,16.27
2022-11-14T22:41:36.488Z,15.88
2022-11-14T22:44:22.816Z,18.20
2022-11-14T22:47:09.339Z,17.33
2022-11-14T22:49:55.838Z,16.20
2022-11-14T22:52:42.370Z,16.27
2022-11-14T22:55:28.890Z,18.27
2022-11-14T22:58:15.527Z,16.75
2022-11-14T23:01:02.496Z,17.17
2022-11-14T23:03:52.865Z,15.85
2022-11-14T23:06:39.612Z,16.63
2022-11-14T23:09:27.255Z,16.65
2022-11-14T23:12:13.799Z,18.45
2022-11-14T23:15:00.091Z,17.40
2022-11-14T23:17:46.888Z,18.08
2022-11-14T23:20:36.242Z,19.08
2022-11-14T23:23:22.516Z,17.70
2022-11-14T23:26:17.984Z,19.17
2022-11-14T23:29:04.789Z,19.15
2022-11-14T23:31:51.484Z,18.17
2022-11-14T23:34:37.696Z,19.45
2022-11-14T23:37:24.335Z,18.42
2022-11-14T23:40:11.255Z,18.05
2022-11-14T23:42:57.303Z,18.63
2022-11-14T23:45:43.764Z,18.73
2022-11-14T23:48:29.998Z,18.45
2022-11-14T23:51:17.668Z,18.20
2022-11-14T23:54:04.537Z,18.33
2022-11-14T23:56:50.934Z,16.58
2022-11-14T23:59:37.037Z,18.00
